sensor_id;sensor_type;location;lat;lon;timestamp;P1;durP1;ratioP1;P2;durP2;ratioP2
71196;SDS011;58918;51.652;4.864;2023-04-01T00:01:02;3.60;;;0.85;;
71196;SDS011;58918;51.652;4.864;2023-04-01T00:03:30;4.30;;;0.80;;
71196;SDS011;58918;51.652;4.864;2023-04-01T00:05:58;4.55;;;0.75;;
71196;SDS011;58918;51.652;4.864;2023-04-01T00:08:25;6.43;;;0.77;;
71196;SDS011;58918;51.652;4.864;2023-04-01T00:10:53;4.30;;;0.70;;
71196;SDS011;58918;51.652;4.864;2023-04-01T00:13:20;4.60;;;1.02;;
71196;SDS011;58918;51.652;4.864;2023-04-01T00:15:47;5.70;;;0.70;;
71196;SDS011;58918;51.652;4.864;2023-04-01T00:18:15;4.18;;;0.60;;
71196;SDS011;58918;51.652;4.864;2023-04-01T00:20:43;7.20;;;0.98;;
71196;SDS011;58918;51.652;4.864;2023-04-01T00:23:10;4.00;;;0.80;;
71196;SDS011;58918;51.652;4.864;2023-04-01T00:25:37;11.25;;;0.98;;
71196;SDS011;58918;51.652;4.864;2023-04-01T00:28:04;4.72;;;0.70;;
71196;SDS011;58918;51.652;4.864;2023-04-01T00:30:31;5.28;;;0.90;;
71196;SDS011;58918;51.652;4.864;2023-04-01T00:32:59;2.58;;;0.80;;
71196;SDS011;58918;51.652;4.864;2023-04-01T00:35:26;2.05;;;0.70;;
71196;SDS011;58918;51.652;4.864;2023-04-01T00:37:53;2.33;;;0.60;;
71196;SDS011;58918;51.652;4.864;2023-04-01T00:40:26;3.45;;;0.77;;
71196;SDS011;58918;51.652;4.864;2023-04-01T00:42:54;3.90;;;0.70;;
71196;SDS011;58918;51.652;4.864;2023-04-01T00:45:35;3.10;;;0.90;;
71196;SDS011;58918;51.652;4.864;2023-04-01T00:48:07;2.42;;;0.70;;
71196;SDS011;58918;51.652;4.864;2023-04-01T00:50:35;3.00;;;1.10;;
71196;SDS011;58918;51.652;4.864;2023-04-01T00:53:03;7.25;;;0.70;;
71196;SDS011;58918;51.652;4.864;2023-04-01T00:55:33;3.45;;;0.60;;
71196;SDS011;58918;51.652;4.864;2023-04-01T00:58:03;1.92;;;0.60;;
71196;SDS011;58918;51.652;4.864;2023-04-01T01:00:32;3.92;;;0.80;;
71196;SDS011;58918;51.652;4.864;2023-04-01T01:02:59;3.47;;;0.63;;
71196;SDS011;58918;51.652;4.864;2023-04-01T01:05:30;3.67;;;1.40;;
71196;SDS011;58918;51.652;4.864;2023-04-01T01:10:48;3.53;;;0.73;;
71196;SDS011;58918;51.652;4.864;2023-04-01T01:15:52;3.03;;;0.47;;
71196;SDS011;58918;51.652;4.864;2023-04-01T01:18:38;1.95;;;0.60;;
71196;SDS011;58918;51.652;4.864;2023-04-01T01:31:56;3.40;;;0.60;;
71196;SDS011;58918;51.652;4.864;2023-04-01T01:36:57;2.40;;;0.60;;
71196;SDS011;58918;51.652;4.864;2023-04-01T01:39:26;2.25;;;0.65;;
71196;SDS011;58918;51.652;4.864;2023-04-01T01:41:59;1.85;;;0.60;;
71196;SDS011;58918;51.652;4.864;2023-04-01T01:44:28;2.17;;;0.60;;
71196;SDS011;58918;51.652;4.864;2023-04-01T01:46:56;3.53;;;0.60;;
71196;SDS011;58918;51.652;4.864;2023-04-01T01:49:23;2.38;;;0.70;;
71196;SDS011;58918;51.652;4.864;2023-04-01T01:51:51;2.08;;;0.60;;
71196;SDS011;58918;51.652;4.864;2023-04-01T01:54:18;2.63;;;0.80;;
71196;SDS011;58918;51.652;4.864;2023-04-01T01:56:46;2.35;;;0.70;;
71196;SDS011;58918;51.652;4.864;2023-04-01T01:59:16;2.85;;;0.65;;
71196;SDS011;58918;51.652;4.864;2023-04-01T02:01:45;1.33;;;0.50;;
71196;SDS011;58918;51.652;4.864;2023-04-01T02:04:13;2.28;;;0.63;;
71196;SDS011;58918;51.652;4.864;2023-04-01T02:06:43;6.40;;;0.50;;
71196;SDS011;58918;51.652;4.864;2023-04-01T02:09:11;2.88;;;0.70;;
71196;SDS011;58918;51.652;4.864;2023-04-01T02:11:43;2.97;;;0.68;;
71196;SDS011;58918;51.652;4.864;2023-04-01T02:17:26;3.88;;;0.90;;
71196;SDS011;58918;51.652;4.864;2023-04-01T02:19:30;1.75;;;0.57;;
71196;SDS011;58918;51.652;4.864;2023-04-01T02:21:59;2.25;;;0.65;;
71196;SDS011;58918;51.652;4.864;2023-04-01T02:26:54;1.92;;;0.60;;
71196;SDS011;58918;51.652;4.864;2023-04-01T02:29:24;2.13;;;0.60;;
71196;SDS011;58918;51.652;4.864;2023-04-01T02:31:54;1.95;;;0.57;;
71196;SDS011;58918;51.652;4.864;2023-04-01T02:34:21;2.17;;;0.65;;
71196;SDS011;58918;51.652;4.864;2023-04-01T02:36:52;1.42;;;0.60;;
71196;SDS011;58918;51.652;4.864;2023-04-01T02:39:20;3.00;;;0.80;;
71196;SDS011;58918;51.652;4.864;2023-04-01T02:41:48;2.45;;;0.60;;
71196;SDS011;58918;51.652;4.864;2023-04-01T02:44:16;2.72;;;0.52;;
71196;SDS011;58918;51.652;4.864;2023-04-01T02:46:43;2.03;;;0.60;;
71196;SDS011;58918;51.652;4.864;2023-04-01T02:49:10;12.77;;;0.80;;
71196;SDS011;58918;51.652;4.864;2023-04-01T02:51:37;2.28;;;0.55;;
71196;SDS011;58918;51.652;4.864;2023-04-01T02:54:05;2.60;;;0.50;;
71196;SDS011;58918;51.652;4.864;2023-04-01T02:56:32;0.90;;;0.40;;
71196;SDS011;58918;51.652;4.864;2023-04-01T02:58:59;1.52;;;0.57;;
71196;SDS011;58918;51.652;4.864;2023-04-01T03:01:26;1.77;;;0.75;;
71196;SDS011;58918;51.652;4.864;2023-04-01T03:03:54;2.28;;;0.55;;
71196;SDS011;58918;51.652;4.864;2023-04-01T03:06:21;2.65;;;0.60;;
71196;SDS011;58918;51.652;4.864;2023-04-01T03:08:48;1.67;;;0.50;;
71196;SDS011;58918;51.652;4.864;2023-04-01T03:11:16;1.88;;;0.52;;
71196;SDS011;58918;51.652;4.864;2023-04-01T03:13:43;2.28;;;0.65;;
71196;SDS011;58918;51.652;4.864;2023-04-01T03:16:10;1.63;;;0.45;;
71196;SDS011;58918;51.652;4.864;2023-04-01T03:18:37;5.18;;;0.60;;
71196;SDS011;58918;51.652;4.864;2023-04-01T03:21:14;1.63;;;0.65;;
71196;SDS011;58918;51.652;4.864;2023-04-01T03:23:42;1.60;;;0.60;;
71196;SDS011;58918;51.652;4.864;2023-04-01T03:26:09;2.10;;;0.43;;
71196;SDS011;58918;51.652;4.864;2023-04-01T03:28:36;1.88;;;0.60;;
71196;SDS011;58918;51.652;4.864;2023-04-01T03:31:04;2.38;;;0.60;;
71196;SDS011;58918;51.652;4.864;2023-04-01T03:33:31;2.42;;;0.88;;
71196;SDS011;58918;51.652;4.864;2023-04-01T03:35:59;1.35;;;0.45;;
71196;SDS011;58918;51.652;4.864;2023-04-01T03:38:26;2.28;;;0.63;;
71196;SDS011;58918;51.652;4.864;2023-04-01T03:40:53;2.33;;;0.75;;
71196;SDS011;58918;51.652;4.864;2023-04-01T03:43:20;1.23;;;0.40;;
71196;SDS011;58918;51.652;4.864;2023-04-01T03:45:48;2.20;;;0.70;;
71196;SDS011;58918;51.652;4.864;2023-04-01T03:48:16;1.83;;;0.40;;
71196;SDS011;58918;51.652;4.864;2023-04-01T03:50:43;1.50;;;0.50;;
71196;SDS011;58918;51.652;4.864;2023-04-01T03:53:11;3.95;;;0.65;;
71196;SDS011;58918;51.652;4.864;2023-04-01T03:55:38;0.85;;;0.40;;
71196;SDS011;58918;51.652;4.864;2023-04-01T03:58:06;1.75;;;0.57;;
71196;SDS011;58918;51.652;4.864;2023-04-01T04:00:34;3.33;;;0.50;;
71196;SDS011;58918;51.652;4.864;2023-04-01T04:03:01;1.63;;;0.60;;
71196;SDS011;58918;51.652;4.864;2023-04-01T04:05:28;1.90;;;0.50;;
71196;SDS011;58918;51.652;4.864;2023-04-01T04:07:57;1.70;;;0.50;;
71196;SDS011;58918;51.652;4.864;2023-04-01T04:10:24;1.42;;;0.47;;
71196;SDS011;58918;51.652;4.864;2023-04-01T04:12:51;3.45;;;0.80;;
71196;SDS011;58918;51.652;4.864;2023-04-01T04:15:19;1.00;;;0.35;;
71196;SDS011;58918;51.652;4.864;2023-04-01T04:17:46;0.73;;;0.40;;
71196;SDS011;58918;51.652;4.864;2023-04-01T04:20:14;3.00;;;0.57;;
71196;SDS011;58918;51.652;4.864;2023-04-01T04:22:41;2.22;;;0.60;;
71196;SDS011;58918;51.652;4.864;2023-04-01T04:25:08;1.95;;;0.55;;
71196;SDS011;58918;51.652;4.864;2023-04-01T04:27:36;1.13;;;0.40;;
71196;SDS011;58918;51.652;4.864;2023-04-01T04:30:03;0.55;;;0.30;;
71196;SDS011;58918;51.652;4.864;2023-04-01T04:32:31;1.55;;;0.47;;
71196;SDS011;58918;51.652;4.864;2023-04-01T04:34:59;2.72;;;0.63;;
71196;SDS011;58918;51.652;4.864;2023-04-01T04:37:26;2.75;;;0.50;;
71196;SDS011;58918;51.652;4.864;2023-04-01T04:39:53;2.13;;;0.40;;
71196;SDS011;58918;51.652;4.864;2023-04-01T04:42:20;1.48;;;0.52;;
71196;SDS011;58918;51.652;4.864;2023-04-01T04:44:47;1.50;;;0.60;;
71196;SDS011;58918;51.652;4.864;2023-04-01T04:47:14;2.35;;;0.60;;
71196;SDS011;58918;51.652;4.864;2023-04-01T04:49:42;1.27;;;0.57;;
71196;SDS011;58918;51.652;4.864;2023-04-01T04:52:09;2.17;;;0.52;;
71196;SDS011;58918;51.652;4.864;2023-04-01T04:54:36;1.50;;;0.52;;
71196;SDS011;58918;51.652;4.864;2023-04-01T04:57:03;1.77;;;0.52;;
71196;SDS011;58918;51.652;4.864;2023-04-01T04:59:30;2.45;;;0.60;;
71196;SDS011;58918;51.652;4.864;2023-04-01T05:01:58;1.63;;;0.38;;
71196;SDS011;58918;51.652;4.864;2023-04-01T05:04:25;1.40;;;0.40;;
71196;SDS011;58918;51.652;4.864;2023-04-01T05:06:52;1.50;;;0.55;;
71196;SDS011;58918;51.652;4.864;2023-04-01T05:09:19;1.25;;;0.40;;
71196;SDS011;58918;51.652;4.864;2023-04-01T05:11:47;1.23;;;0.47;;
71196;SDS011;58918;51.652;4.864;2023-04-01T05:14:16;1.98;;;0.70;;
71196;SDS011;58918;51.652;4.864;2023-04-01T05:16:44;3.05;;;0.52;;
71196;SDS011;58918;51.652;4.864;2023-04-01T05:19:11;1.05;;;0.35;;
71196;SDS011;58918;51.652;4.864;2023-04-01T05:21:38;1.35;;;0.50;;
71196;SDS011;58918;51.652;4.864;2023-04-01T05:24:07;1.85;;;0.68;;
71196;SDS011;58918;51.652;4.864;2023-04-01T05:26:35;1.55;;;0.50;;
71196;SDS011;58918;51.652;4.864;2023-04-01T05:29:03;2.60;;;0.50;;
71196;SDS011;58918;51.652;4.864;2023-04-01T05:31:30;1.83;;;0.60;;
71196;SDS011;58918;51.652;4.864;2023-04-01T05:33:58;3.13;;;0.60;;
71196;SDS011;58918;51.652;4.864;2023-04-01T05:36:25;1.48;;;0.50;;
71196;SDS011;58918;51.652;4.864;2023-04-01T05:38:54;2.08;;;0.50;;
71196;SDS011;58918;51.652;4.864;2023-04-01T05:41:21;2.13;;;0.60;;
71196;SDS011;58918;51.652;4.864;2023-04-01T05:43:49;3.03;;;0.70;;
71196;SDS011;58918;51.652;4.864;2023-04-01T05:46:16;1.55;;;0.60;;
71196;SDS011;58918;51.652;4.864;2023-04-01T05:48:43;2.47;;;0.85;;
71196;SDS011;58918;51.652;4.864;2023-04-01T05:51:14;2.25;;;0.77;;
71196;SDS011;58918;51.652;4.864;2023-04-01T05:53:41;1.48;;;0.60;;
71196;SDS011;58918;51.652;4.864;2023-04-01T05:56:09;1.55;;;0.50;;
71196;SDS011;58918;51.652;4.864;2023-04-01T05:58:36;2.08;;;0.68;;
71196;SDS011;58918;51.652;4.864;2023-04-01T06:01:05;1.45;;;0.60;;
71196;SDS011;58918;51.652;4.864;2023-04-01T06:06:11;2.45;;;1.60;;
71196;SDS011;58918;51.652;4.864;2023-04-01T06:11:19;1.55;;;0.60;;
71196;SDS011;58918;51.652;4.864;2023-04-01T06:19:33;2.03;;;0.50;;
71196;SDS011;58918;51.652;4.864;2023-04-01T06:24:11;1.30;;;0.50;;
71196;SDS011;58918;51.652;4.864;2023-04-01T06:34:32;5.00;;;0.88;;
71196;SDS011;58918;51.652;4.864;2023-04-01T06:37:07;9.10;;;1.30;;
71196;SDS011;58918;51.652;4.864;2023-04-01T06:44:37;7.10;;;1.20;;
71196;SDS011;58918;51.652;4.864;2023-04-01T06:47:19;5.20;;;0.95;;
71196;SDS011;58918;51.652;4.864;2023-04-01T06:49:55;2.17;;;0.60;;
71196;SDS011;58918;51.652;4.864;2023-04-01T06:52:27;2.72;;;0.70;;
71196;SDS011;58918;51.652;4.864;2023-04-01T06:55:02;4.75;;;0.80;;
71196;SDS011;58918;51.652;4.864;2023-04-01T06:57:45;2.47;;;0.82;;
71196;SDS011;58918;51.652;4.864;2023-04-01T07:00:27;3.10;;;0.75;;
71196;SDS011;58918;51.652;4.864;2023-04-01T07:03:00;4.28;;;1.02;;
71196;SDS011;58918;51.652;4.864;2023-04-01T07:05:33;2.28;;;0.70;;
71196;SDS011;58918;51.652;4.864;2023-04-01T07:08:03;2.13;;;0.80;;
71196;SDS011;58918;51.652;4.864;2023-04-01T07:10:42;2.63;;;0.77;;
71196;SDS011;58918;51.652;4.864;2023-04-01T07:13:29;2.28;;;0.80;;
71196;SDS011;58918;51.652;4.864;2023-04-01T07:18:37;2.08;;;0.70;;
71196;SDS011;58918;51.652;4.864;2023-04-01T07:21:09;2.85;;;0.90;;
71196;SDS011;58918;51.652;4.864;2023-04-01T07:23:38;1.95;;;0.70;;
71196;SDS011;58918;51.652;4.864;2023-04-01T07:26:17;1.80;;;0.68;;
71196;SDS011;58918;51.652;4.864;2023-04-01T07:28:46;3.05;;;0.85;;
71196;SDS011;58918;51.652;4.864;2023-04-01T07:34:04;2.85;;;0.75;;
71196;SDS011;58918;51.652;4.864;2023-04-01T07:36:33;4.28;;;0.70;;
71196;SDS011;58918;51.652;4.864;2023-04-01T07:41:52;3.67;;;0.70;;
71196;SDS011;58918;51.652;4.864;2023-04-01T07:47:30;2.40;;;0.70;;
71196;SDS011;58918;51.652;4.864;2023-04-01T07:52:35;1.45;;;0.50;;
71196;SDS011;58918;51.652;4.864;2023-04-01T07:57:48;2.15;;;0.70;;
71196;SDS011;58918;51.652;4.864;2023-04-01T08:06:03;2.00;;;0.68;;
71196;SDS011;58918;51.652;4.864;2023-04-01T08:08:45;2.78;;;0.70;;
71196;SDS011;58918;51.652;4.864;2023-04-01T08:11:20;4.50;;;0.73;;
71196;SDS011;58918;51.652;4.864;2023-04-01T08:13:53;2.97;;;0.60;;
71196;SDS011;58918;51.652;4.864;2023-04-01T08:16:23;2.35;;;0.63;;
71196;SDS011;58918;51.652;4.864;2023-04-01T08:18:56;1.73;;;0.65;;
71196;SDS011;58918;51.652;4.864;2023-04-01T08:21:28;3.00;;;0.80;;
71196;SDS011;58918;51.652;4.864;2023-04-01T08:23:59;3.13;;;0.65;;
71196;SDS011;58918;51.652;4.864;2023-04-01T08:26:36;3.53;;;0.80;;
71196;SDS011;58918;51.652;4.864;2023-04-01T08:29:14;4.97;;;1.20;;
71196;SDS011;58918;51.652;4.864;2023-04-01T08:31:46;2.65;;;0.80;;
71196;SDS011;58918;51.652;4.864;2023-04-01T08:34:17;3.08;;;0.80;;
71196;SDS011;58918;51.652;4.864;2023-04-01T08:36:47;3.22;;;0.93;;
71196;SDS011;58918;51.652;4.864;2023-04-01T08:39:18;3.95;;;0.70;;
71196;SDS011;58918;51.652;4.864;2023-04-01T08:57:40;3.22;;;0.80;;
71196;SDS011;58918;51.652;4.864;2023-04-01T09:00:15;5.35;;;1.50;;
71196;SDS011;58918;51.652;4.864;2023-04-01T09:02:48;4.18;;;0.75;;
71196;SDS011;58918;51.652;4.864;2023-04-01T09:11:40;3.50;;;0.90;;
71196;SDS011;58918;51.652;4.864;2023-04-01T09:16:11;3.13;;;1.00;;
71196;SDS011;58918;51.652;4.864;2023-04-01T09:28:44;4.45;;;1.00;;
71196;SDS011;58918;51.652;4.864;2023-04-01T09:33:55;2.90;;;0.90;;
71196;SDS011;58918;51.652;4.864;2023-04-01T09:36:33;4.45;;;0.90;;
71196;SDS011;58918;51.652;4.864;2023-04-01T09:44:32;5.03;;;0.98;;
71196;SDS011;58918;51.652;4.864;2023-04-01T09:52:29;4.18;;;0.90;;
71196;SDS011;58918;51.652;4.864;2023-04-01T09:55:01;4.80;;;1.20;;
71196;SDS011;58918;51.652;4.864;2023-04-01T10:00:29;3.72;;;0.90;;
71196;SDS011;58918;51.652;4.864;2023-04-01T10:03:02;2.75;;;0.80;;
71196;SDS011;58918;51.652;4.864;2023-04-01T10:05:58;2.67;;;0.80;;
71196;SDS011;58918;51.652;4.864;2023-04-01T10:13:48;5.13;;;0.88;;
71196;SDS011;58918;51.652;4.864;2023-04-01T10:16:45;3.00;;;0.90;;
71196;SDS011;58918;51.652;4.864;2023-04-01T10:30:03;2.95;;;1.08;;
71196;SDS011;58918;51.652;4.864;2023-04-01T10:50:45;7.30;;;1.13;;
71196;SDS011;58918;51.652;4.864;2023-04-01T10:59:02;4.68;;;1.30;;
71196;SDS011;58918;51.652;4.864;2023-04-01T11:04:29;5.07;;;1.02;;
71196;SDS011;58918;51.652;4.864;2023-04-01T11:15:27;3.88;;;1.20;;
71196;SDS011;58918;51.652;4.864;2023-04-01T11:20:36;5.32;;;1.33;;
71196;SDS011;58918;51.652;4.864;2023-04-01T11:23:22;3.22;;;1.23;;
71196;SDS011;58918;51.652;4.864;2023-04-01T11:25:56;3.65;;;1.20;;
71196;SDS011;58918;51.652;4.864;2023-04-01T11:34:05;5.40;;;1.33;;
71196;SDS011;58918;51.652;4.864;2023-04-01T11:41:43;3.10;;;0.88;;
71196;SDS011;58918;51.652;4.864;2023-04-01T11:44:19;3.30;;;0.95;;
71196;SDS011;58918;51.652;4.864;2023-04-01T11:59:44;3.33;;;1.08;;
71196;SDS011;58918;51.652;4.864;2023-04-01T12:02:40;3.88;;;0.90;;
71196;SDS011;58918;51.652;4.864;2023-04-01T12:13:31;3.17;;;1.02;;
71196;SDS011;58918;51.652;4.864;2023-04-01T12:16:21;4.10;;;1.00;;
71196;SDS011;58918;51.652;4.864;2023-04-01T12:21:37;3.63;;;1.00;;
71196;SDS011;58918;51.652;4.864;2023-04-01T12:32:37;2.47;;;0.98;;
71196;SDS011;58918;51.652;4.864;2023-04-01T13:05:24;2.38;;;0.90;;
71196;SDS011;58918;51.652;4.864;2023-04-01T13:10:53;2.63;;;1.02;;
71196;SDS011;58918;51.652;4.864;2023-04-01T13:23:41;3.55;;;1.10;;
71196;SDS011;58918;51.652;4.864;2023-04-01T13:29:09;4.30;;;0.95;;
71196;SDS011;58918;51.652;4.864;2023-04-01T13:34:35;2.50;;;1.05;;
71196;SDS011;58918;51.652;4.864;2023-04-01T13:37:09;3.22;;;1.00;;
71196;SDS011;58918;51.652;4.864;2023-04-01T13:43:22;3.95;;;1.10;;
71196;SDS011;58918;51.652;4.864;2023-04-01T13:45:29;2.63;;;0.98;;
71196;SDS011;58918;51.652;4.864;2023-04-01T13:58:49;3.45;;;1.20;;
71196;SDS011;58918;51.652;4.864;2023-04-01T14:03:57;3.10;;;1.17;;
71196;SDS011;58918;51.652;4.864;2023-04-01T14:06:34;3.58;;;1.25;;
71196;SDS011;58918;51.652;4.864;2023-04-01T14:09:08;2.90;;;1.10;;
71196;SDS011;58918;51.652;4.864;2023-04-01T14:11:41;4.47;;;1.00;;
71196;SDS011;58918;51.652;4.864;2023-04-01T14:14:26;3.70;;;1.35;;
71196;SDS011;58918;51.652;4.864;2023-04-01T14:17:03;2.88;;;1.15;;
71196;SDS011;58918;51.652;4.864;2023-04-01T14:19:51;3.50;;;1.20;;
71196;SDS011;58918;51.652;4.864;2023-04-01T14:25:01;3.25;;;1.15;;
71196;SDS011;58918;51.652;4.864;2023-04-01T14:32:38;2.45;;;1.00;;
71196;SDS011;58918;51.652;4.864;2023-04-01T14:37:56;3.17;;;1.10;;
71196;SDS011;58918;51.652;4.864;2023-04-01T14:40:43;2.75;;;1.20;;
71196;SDS011;58918;51.652;4.864;2023-04-01T14:51:33;3.17;;;1.00;;
71196;SDS011;58918;51.652;4.864;2023-04-01T14:56:42;3.47;;;1.40;;
71196;SDS011;58918;51.652;4.864;2023-04-01T14:59:30;3.60;;;1.33;;
71196;SDS011;58918;51.652;4.864;2023-04-01T15:04:38;3.28;;;0.95;;
71196;SDS011;58918;51.652;4.864;2023-04-01T15:19:54;3.30;;;1.23;;
71196;SDS011;58918;51.652;4.864;2023-04-01T15:22:32;2.55;;;1.08;;
71196;SDS011;58918;51.652;4.864;2023-04-01T15:30:31;2.97;;;1.10;;
71196;SDS011;58918;51.652;4.864;2023-04-01T15:33:07;3.90;;;1.13;;
71196;SDS011;58918;51.652;4.864;2023-04-01T15:35:39;3.22;;;1.20;;
71196;SDS011;58918;51.652;4.864;2023-04-01T15:38:11;3.63;;;1.10;;
71196;SDS011;58918;51.652;4.864;2023-04-01T15:40:45;3.55;;;0.90;;
71196;SDS011;58918;51.652;4.864;2023-04-01T15:53:49;3.38;;;1.20;;
71196;SDS011;58918;51.652;4.864;2023-04-01T15:56:28;2.80;;;1.10;;
71196;SDS011;58918;51.652;4.864;2023-04-01T16:29:51;4.20;;;1.35;;
71196;SDS011;58918;51.652;4.864;2023-04-01T16:38:13;5.50;;;1.50;;
71196;SDS011;58918;51.652;4.864;2023-04-01T16:43:39;4.32;;;1.20;;
71196;SDS011;58918;51.652;4.864;2023-04-01T16:49:00;7.97;;;1.52;;
71196;SDS011;58918;51.652;4.864;2023-04-01T16:57:02;8.40;;;1.23;;
71196;SDS011;58918;51.652;4.864;2023-04-01T16:59:37;4.97;;;1.17;;
71196;SDS011;58918;51.652;4.864;2023-04-01T17:09:42;4.30;;;1.08;;
71196;SDS011;58918;51.652;4.864;2023-04-01T17:25:32;4.80;;;1.45;;
71196;SDS011;58918;51.652;4.864;2023-04-01T17:28:05;2.90;;;1.10;;
71196;SDS011;58918;51.652;4.864;2023-04-01T17:30:42;3.25;;;1.10;;
71196;SDS011;58918;51.652;4.864;2023-04-01T17:44:18;3.88;;;1.10;;
71196;SDS011;58918;51.652;4.864;2023-04-01T18:02:21;3.67;;;0.90;;
71196;SDS011;58918;51.652;4.864;2023-04-01T18:17:57;4.40;;;1.20;;
71196;SDS011;58918;51.652;4.864;2023-04-01T18:20:43;6.00;;;1.42;;
71196;SDS011;58918;51.652;4.864;2023-04-01T18:26:34;3.47;;;1.23;;
71196;SDS011;58918;51.652;4.864;2023-04-01T18:31:51;5.95;;;1.30;;
71196;SDS011;58918;51.652;4.864;2023-04-01T18:36:54;3.15;;;0.93;;
71196;SDS011;58918;51.652;4.864;2023-04-01T18:39:23;5.28;;;1.23;;
71196;SDS011;58918;51.652;4.864;2023-04-01T18:42:06;3.88;;;1.30;;
71196;SDS011;58918;51.652;4.864;2023-04-01T18:44:48;7.13;;;1.52;;
71196;SDS011;58918;51.652;4.864;2023-04-01T18:49:59;4.47;;;1.33;;
71196;SDS011;58918;51.652;4.864;2023-04-01T18:52:32;4.18;;;1.00;;
71196;SDS011;58918;51.652;4.864;2023-04-01T18:57:50;4.38;;;1.23;;
71196;SDS011;58918;51.652;4.864;2023-04-01T19:00:25;4.55;;;1.05;;
71196;SDS011;58918;51.652;4.864;2023-04-01T19:05:39;7.18;;;1.50;;
71196;SDS011;58918;51.652;4.864;2023-04-01T19:21:18;3.72;;;1.00;;
71196;SDS011;58918;51.652;4.864;2023-04-01T19:26:25;5.70;;;1.00;;
71196;SDS011;58918;51.652;4.864;2023-04-01T19:31:44;3.45;;;1.00;;
71196;SDS011;58918;51.652;4.864;2023-04-01T19:37:40;3.28;;;1.20;;
71196;SDS011;58918;51.652;4.864;2023-04-01T19:44:52;5.25;;;0.98;;
71196;SDS011;58918;51.652;4.864;2023-04-01T19:50:29;2.10;;;0.70;;
71196;SDS011;58918;51.652;4.864;2023-04-01T19:55:44;3.42;;;0.90;;
71196;SDS011;58918;51.652;4.864;2023-04-01T19:58:25;3.97;;;0.92;;
71196;SDS011;58918;51.652;4.864;2023-04-01T20:00:56;3.03;;;0.80;;
71196;SDS011;58918;51.652;4.864;2023-04-01T20:06:02;2.75;;;0.82;;
71196;SDS011;58918;51.652;4.864;2023-04-01T20:08:42;3.00;;;1.08;;
71196;SDS011;58918;51.652;4.864;2023-04-01T20:11:14;4.32;;;0.95;;
71196;SDS011;58918;51.652;4.864;2023-04-01T20:13:47;3.42;;;0.98;;
71196;SDS011;58918;51.652;4.864;2023-04-01T20:16:20;2.60;;;0.73;;
71196;SDS011;58918;51.652;4.864;2023-04-01T20:18:50;4.78;;;1.42;;
71196;SDS011;58918;51.652;4.864;2023-04-01T20:21:34;6.50;;;1.00;;
71196;SDS011;58918;51.652;4.864;2023-04-01T20:24:20;3.25;;;0.98;;
71196;SDS011;58918;51.652;4.864;2023-04-01T20:29:35;2.20;;;0.80;;
71196;SDS011;58918;51.652;4.864;2023-04-01T20:42:54;2.60;;;0.80;;
71196;SDS011;58918;51.652;4.864;2023-04-01T20:50:28;3.50;;;0.95;;
71196;SDS011;58918;51.652;4.864;2023-04-01T20:52:57;2.58;;;0.65;;
71196;SDS011;58918;51.652;4.864;2023-04-01T21:05:59;2.70;;;0.80;;
71196;SDS011;58918;51.652;4.864;2023-04-01T21:27:45;1.88;;;0.70;;
71196;SDS011;58918;51.652;4.864;2023-04-01T21:30:08;3.78;;;0.80;;
71196;SDS011;58918;51.652;4.864;2023-04-01T21:33:02;5.55;;;0.80;;
71196;SDS011;58918;51.652;4.864;2023-04-01T21:41:01;1.95;;;0.80;;
71196;SDS011;58918;51.652;4.864;2023-04-01T21:51:22;2.10;;;0.80;;
71196;SDS011;58918;51.652;4.864;2023-04-01T21:56:17;2.92;;;0.88;;
71196;SDS011;58918;51.652;4.864;2023-04-01T22:04:23;4.28;;;0.90;;
71196;SDS011;58918;51.652;4.864;2023-04-01T22:06:56;2.63;;;0.80;;
71196;SDS011;58918;51.652;4.864;2023-04-01T22:09:35;2.10;;;0.60;;
71196;SDS011;58918;51.652;4.864;2023-04-01T22:12:07;3.03;;;0.90;;
71196;SDS011;58918;51.652;4.864;2023-04-01T22:20:23;3.28;;;0.80;;
71196;SDS011;58918;51.652;4.864;2023-04-01T22:22:57;2.15;;;0.75;;
71196;SDS011;58918;51.652;4.864;2023-04-01T22:30:29;2.20;;;0.70;;
71196;SDS011;58918;51.652;4.864;2023-04-01T22:33:02;4.07;;;1.08;;
71196;SDS011;58918;51.652;4.864;2023-04-01T22:40:57;2.40;;;0.90;;
71196;SDS011;58918;51.652;4.864;2023-04-01T22:43:33;3.80;;;0.82;;
71196;SDS011;58918;51.652;4.864;2023-04-01T22:48:46;2.05;;;0.77;;
71196;SDS011;58918;51.652;4.864;2023-04-01T22:51:18;2.00;;;0.75;;
71196;SDS011;58918;51.652;4.864;2023-04-01T22:56:20;2.13;;;0.70;;
71196;SDS011;58918;51.652;4.864;2023-04-01T22:58:56;2.25;;;0.85;;
71196;SDS011;58918;51.652;4.864;2023-04-01T23:01:29;4.10;;;0.85;;
71196;SDS011;58918;51.652;4.864;2023-04-01T23:03:58;3.05;;;0.95;;
71196;SDS011;58918;51.652;4.864;2023-04-01T23:06:29;2.38;;;0.73;;
71196;SDS011;58918;51.652;4.864;2023-04-01T23:16:35;2.53;;;0.70;;
71196;SDS011;58918;51.652;4.864;2023-04-01T23:21:51;2.45;;;0.75;;
71196;SDS011;58918;51.652;4.864;2023-04-01T23:26:55;2.33;;;0.77;;
71196;SDS011;58918;51.652;4.864;2023-04-01T23:29:23;2.88;;;0.80;;
71196;SDS011;58918;51.652;4.864;2023-04-01T23:31:58;2.70;;;0.90;;
71196;SDS011;58918;51.652;4.864;2023-04-01T23:37:10;2.03;;;0.70;;
71196;SDS011;58918;51.652;4.864;2023-04-01T23:39:46;2.72;;;0.82;;
71196;SDS011;58918;51.652;4.864;2023-04-01T23:44:55;2.38;;;0.68;;
71196;SDS011;58918;51.652;4.864;2023-04-01T23:47:26;6.30;;;1.00;;
71196;SDS011;58918;51.652;4.864;2023-04-01T23:50:14;3.33;;;0.85;;
71196;SDS011;58918;51.652;4.864;2023-04-01T23:52:44;2.72;;;0.80;;
71196;SDS011;58918;51.652;4.864;2023-04-01T23:55:14;2.33;;;0.80;;
71196;SDS011;58918;51.652;4.864;2023-04-01T23:58:00;1.83;;;0.70;;
